createdAt,value
2024-03-09T00:00:04.463Z,24.2400
2024-03-09T00:00:15.831Z,24.2400
2024-03-09T00:00:26.897Z,24.2400
2024-03-09T00:00:37.999Z,24.2300
2024-03-09T00:00:49.049Z,24.2300
2024-03-09T00:01:00.091Z,24.2300
2024-03-09T00:01:11.158Z,24.2200
2024-03-09T00:01:22.195Z,24.2200
2024-03-09T00:01:33.275Z,24.2200
2024-03-09T00:01:44.399Z,24.2100
2024-03-09T00:01:55.589Z,24.2100
2024-03-09T00:02:06.759Z,24.2100
2024-03-09T00:02:18.011Z,24.2200
2024-03-09T00:02:29.354Z,24.2200
2024-03-09T00:02:40.538Z,24.2300
2024-03-09T00:02:51.695Z,24.2400
2024-03-09T00:03:02.801Z,24.2400
2024-03-09T00:03:14.312Z,24.2300
2024-03-09T00:03:27.445Z,24.2400
2024-03-09T00:03:39.999Z,24.2400
2024-03-09T00:03:51.049Z,24.2200
2024-03-09T00:04:02.107Z,24.2200
2024-03-09T00:04:13.181Z,24.2200
2024-03-09T00:04:24.272Z,24.2300
2024-03-09T00:04:35.347Z,24.2300
2024-03-09T00:04:46.414Z,24.2300
2024-03-09T00:04:57.570Z,24.2400
2024-03-09T00:05:08.756Z,24.2400
2024-03-09T00:05:19.834Z,24.2400
2024-03-09T00:05:30.894Z,24.2400
2024-03-09T00:05:42.028Z,24.2400
2024-03-09T00:05:53.093Z,24.2500
2024-03-09T00:06:04.144Z,24.2500
2024-03-09T00:06:15.197Z,24.2600
2024-03-09T00:06:26.259Z,24.2600
2024-03-09T00:06:37.328Z,24.2600
2024-03-09T00:06:48.377Z,24.2500
2024-03-09T00:06:59.414Z,24.2600
2024-03-09T00:07:10.445Z,24.2600
2024-03-09T00:07:21.514Z,24.2600
2024-03-09T00:07:32.581Z,24.2600
2024-03-09T00:07:43.679Z,24.2700
2024-03-09T00:07:54.748Z,24.2700
2024-03-09T00:08:05.957Z,24.2700
2024-03-09T00:08:17.039Z,24.2700
2024-03-09T00:08:28.095Z,24.2700
2024-03-09T00:08:39.141Z,24.2600
2024-03-09T00:08:50.204Z,24.2500
2024-03-09T00:09:01.232Z,24.2500
2024-03-09T00:09:12.284Z,24.2500
2024-03-09T00:09:23.322Z,24.2500
2024-03-09T00:09:34.349Z,24.2500
2024-03-09T00:09:45.405Z,24.2500
2024-03-09T00:09:56.452Z,24.2500
2024-03-09T00:10:07.537Z,24.2600
2024-03-09T00:10:18.620Z,24.2700
2024-03-09T00:10:29.675Z,24.2700
2024-03-09T00:10:40.738Z,24.2700
2024-03-09T00:10:51.841Z,24.2700
2024-03-09T00:11:03.243Z,24.2800
2024-03-09T00:11:14.400Z,24.2800
2024-03-09T00:11:25.595Z,24.2800
2024-03-09T00:11:36.817Z,24.2800
2024-03-09T00:11:47.937Z,24.2800
2024-03-09T00:11:59.019Z,24.2800
2024-03-09T00:12:10.058Z,24.2800
2024-03-09T00:12:21.084Z,24.2700
2024-03-09T00:12:32.137Z,24.2700
2024-03-09T00:12:43.169Z,24.2700
2024-03-09T00:12:54.235Z,24.2700
2024-03-09T00:13:05.437Z,24.2700
2024-03-09T00:13:16.510Z,24.2600
2024-03-09T00:13:27.613Z,24.2500
2024-03-09T00:13:40.283Z,24.2500
2024-03-09T00:13:51.780Z,24.2500
2024-03-09T00:14:02.945Z,24.2400
2024-03-09T00:14:14.080Z,24.2500
2024-03-09T00:14:25.209Z,24.2500
2024-03-09T00:14:36.250Z,24.2500
2024-03-09T00:14:47.287Z,24.2500
2024-03-09T00:14:58.347Z,24.2500
2024-03-09T00:15:09.399Z,24.2500
2024-03-09T00:15:20.523Z,24.2500
2024-03-09T00:15:31.670Z,24.2500
2024-03-09T00:15:42.894Z,24.2500
2024-03-09T00:15:54.064Z,24.2600
2024-03-09T00:16:05.135Z,24.2600
2024-03-09T00:16:16.155Z,24.2700
2024-03-09T00:16:27.253Z,24.2700
2024-03-09T00:16:38.314Z,24.2600
2024-03-09T00:16:49.367Z,24.2600
2024-03-09T00:17:00.566Z,24.2600
2024-03-09T00:17:11.722Z,24.2700
2024-03-09T00:17:22.787Z,24.2600
2024-03-09T00:17:33.856Z,24.2600
2024-03-09T00:17:44.911Z,24.2700
2024-03-09T00:17:56.011Z,24.2700
2024-03-09T00:18:07.077Z,24.2700
2024-03-09T00:18:26.022Z,24.2800
2024-03-09T00:18:41.468Z,24.2700
2024-03-09T00:18:52.032Z,24.2500
2024-03-09T00:19:03.031Z,24.2200
2024-03-09T00:19:14.088Z,24.2200
2024-03-09T00:19:25.225Z,24.2400
2024-03-09T00:19:36.271Z,24.2400
2024-03-09T00:19:47.315Z,24.2500
2024-03-09T00:19:58.486Z,24.2500
2024-03-09T00:20:09.556Z,24.2500
2024-03-09T00:20:20.591Z,24.2500
2024-03-09T00:20:31.675Z,24.2500
2024-03-09T00:20:42.728Z,24.2500
2024-03-09T00:20:53.749Z,24.2500
2024-03-09T00:21:04.791Z,24.2500
2024-03-09T00:21:15.885Z,24.2500
2024-03-09T00:21:26.948Z,24.2500
2024-03-09T00:21:37.994Z,24.2500
2024-03-09T00:21:49.051Z,24.2600
2024-03-09T00:22:00.118Z,24.2600
2024-03-09T00:22:11.150Z,24.2600
2024-03-09T00:22:22.213Z,24.2600
2024-03-09T00:22:33.319Z,24.2600
2024-03-09T00:22:44.369Z,24.2500
2024-03-09T00:22:55.522Z,24.2500
2024-03-09T00:23:07.930Z,24.2500
2024-03-09T00:23:19.562Z,24.2500
2024-03-09T00:23:30.593Z,24.2400
2024-03-09T00:23:41.947Z,24.2500
2024-03-09T00:23:53.430Z,24.2500
2024-03-09T00:24:04.479Z,24.2500
2024-03-09T00:24:15.541Z,24.2500
2024-03-09T00:24:26.590Z,24.2600
2024-03-09T00:24:37.658Z,24.2500
2024-03-09T00:24:48.703Z,24.2500
2024-03-09T00:24:59.760Z,24.2500
2024-03-09T00:25:10.793Z,24.2500
2024-03-09T00:25:21.845Z,24.2500
2024-03-09T00:25:33.015Z,24.2500
2024-03-09T00:25:44.144Z,24.2400
2024-03-09T00:25:55.225Z,24.2500
2024-03-09T00:26:06.243Z,24.2500
2024-03-09T00:26:17.309Z,24.2500
2024-03-09T00:26:28.369Z,24.2500
2024-03-09T00:26:39.419Z,24.2500
2024-03-09T00:26:50.469Z,24.2500
2024-03-09T00:27:01.516Z,24.2500
2024-03-09T00:27:12.541Z,24.2600
2024-03-09T00:27:23.594Z,24.2600
2024-03-09T00:27:34.664Z,24.2500
2024-03-09T00:27:45.714Z,24.2500
2024-03-09T00:27:56.779Z,24.2400
2024-03-09T00:28:08.442Z,24.2400
2024-03-09T00:28:19.666Z,24.2300
2024-03-09T00:28:30.777Z,24.2300
2024-03-09T00:28:42.030Z,24.2400
2024-03-09T00:28:55.976Z,24.2400
2024-03-09T00:29:07.414Z,24.2300
2024-03-09T00:29:18.561Z,24.2200
2024-03-09T00:29:29.640Z,24.2300
2024-03-09T00:29:40.695Z,24.2300
2024-03-09T00:29:51.759Z,24.2400
2024-03-09T00:30:02.822Z,24.2400
2024-03-09T00:30:13.976Z,24.2300
2024-03-09T00:30:25.059Z,24.2300
2024-03-09T00:30:36.596Z,24.2300
2024-03-09T00:30:47.908Z,24.2400
2024-03-09T00:30:58.968Z,24.2400
2024-03-09T00:31:10.028Z,24.2400
2024-03-09T00:31:21.115Z,24.2400
2024-03-09T00:31:32.160Z,24.2300
2024-03-09T00:31:43.182Z,24.2300
2024-03-09T00:31:54.353Z,24.2400
2024-03-09T00:32:05.458Z,24.2400
2024-03-09T00:32:16.508Z,24.2300
2024-03-09T00:32:27.594Z,24.2300
2024-03-09T00:32:38.682Z,24.2300
2024-03-09T00:32:49.765Z,24.2300
2024-03-09T00:33:01.174Z,24.2300
2024-03-09T00:33:12.502Z,24.2300
2024-03-09T00:33:23.609Z,24.2300
2024-03-09T00:33:34.639Z,24.2200
2024-03-09T00:33:45.693Z,24.2200
2024-03-09T00:33:56.719Z,24.2200
2024-03-09T00:34:07.755Z,24.2200
2024-03-09T00:34:18.808Z,24.2300
2024-03-09T00:34:29.882Z,24.2300
2024-03-09T00:34:40.945Z,24.2300
2024-03-09T00:34:52.036Z,24.2400
2024-03-09T00:35:03.176Z,24.2500
2024-03-09T00:35:21.795Z,24.2500
2024-03-09T00:35:32.843Z,24.2600
2024-03-09T00:35:43.910Z,24.2300
2024-03-09T00:35:54.957Z,24.2400
2024-03-09T00:36:06.020Z,24.2500
2024-03-09T00:36:17.105Z,24.2500
2024-03-09T00:36:28.123Z,24.2500
2024-03-09T00:36:39.194Z,24.2500
2024-03-09T00:36:50.256Z,24.2600
2024-03-09T00:37:01.309Z,24.2500
2024-03-09T00:37:12.359Z,24.2500
2024-03-09T00:37:23.416Z,24.2500
2024-03-09T00:37:34.500Z,24.2400
2024-03-09T00:37:45.582Z,24.2400
2024-03-09T00:37:56.726Z,24.2300
2024-03-09T00:38:07.835Z,24.2300
2024-03-09T00:38:18.917Z,24.2300
2024-03-09T00:38:29.984Z,24.2200
2024-03-09T00:38:41.038Z,24.2200
2024-03-09T00:38:52.089Z,24.2200
2024-03-09T00:39:03.175Z,24.2200
2024-03-09T00:39:14.199Z,24.2300
2024-03-09T00:39:25.239Z,24.2300
2024-03-09T00:39:36.279Z,24.2400
2024-03-09T00:39:47.360Z,24.2400
2024-03-09T00:39:58.443Z,24.2400
2024-03-09T00:40:09.479Z,24.2400
2024-03-09T00:40:20.564Z,24.2500
2024-03-09T00:40:31.970Z,24.2500
2024-03-09T00:40:43.414Z,24.2400
2024-03-09T00:40:54.508Z,24.2400
2024-03-09T00:41:05.636Z,24.2400
2024-03-09T00:41:16.790Z,24.2400
2024-03-09T00:41:27.907Z,24.2400
2024-03-09T00:41:38.929Z,24.2400
2024-03-09T00:41:50.003Z,24.2400
2024-03-09T00:42:01.041Z,24.2400
2024-03-09T00:42:12.077Z,24.2500
2024-03-09T00:42:23.119Z,24.2500
2024-03-09T00:42:34.199Z,24.2500
2024-03-09T00:42:45.238Z,24.2400
2024-03-09T00:42:56.269Z,24.2400
2024-03-09T00:43:07.784Z,24.2400
2024-03-09T00:43:19.129Z,24.2400
2024-03-09T00:43:30.214Z,24.2300
2024-03-09T00:43:41.366Z,24.2300
2024-03-09T00:43:52.453Z,24.2400
2024-03-09T00:44:03.531Z,24.2400
2024-03-09T00:44:14.681Z,24.2300
2024-03-09T00:44:25.748Z,24.2300
2024-03-09T00:44:36.818Z,24.2300
2024-03-09T00:44:47.864Z,24.2300
2024-03-09T00:44:58.930Z,24.2200
2024-03-09T00:45:09.980Z,24.2200
2024-03-09T00:45:21.051Z,24.2200
2024-03-09T00:45:32.130Z,24.2200
2024-03-09T00:45:43.192Z,24.2200
2024-03-09T00:45:54.709Z,24.2200
2024-03-09T00:46:05.752Z,24.2200
2024-03-09T00:46:16.783Z,24.2200
2024-03-09T00:46:27.869Z,24.2200
2024-03-09T00:46:38.935Z,24.2200
2024-03-09T00:46:50.048Z,24.2200
2024-03-09T00:47:01.112Z,24.2200
2024-03-09T00:47:12.235Z,24.2100
2024-03-09T00:47:23.281Z,24.2100
2024-03-09T00:47:34.374Z,24.2100
2024-03-09T00:47:45.427Z,24.2100
2024-03-09T00:47:56.541Z,24.2100
2024-03-09T00:48:07.627Z,24.2200
2024-03-09T00:48:18.719Z,24.2100
2024-03-09T00:48:29.740Z,24.2100
2024-03-09T00:48:40.792Z,24.2200
2024-03-09T00:48:51.849Z,24.2200
2024-03-09T00:49:02.909Z,24.2200
2024-03-09T00:49:13.969Z,24.2200
2024-03-09T00:49:25.048Z,24.2200
2024-03-09T00:49:36.105Z,24.2100
2024-03-09T00:49:47.151Z,24.2100
2024-03-09T00:49:58.274Z,24.2100
2024-03-09T00:50:09.434Z,24.2100
2024-03-09T00:50:20.541Z,24.2100
2024-03-09T00:50:31.592Z,24.2200
2024-03-09T00:50:42.670Z,24.2200
2024-03-09T00:50:53.705Z,24.2200
2024-03-09T00:51:04.749Z,24.2200
2024-03-09T00:51:15.795Z,24.2200
2024-03-09T00:51:26.838Z,24.2100
2024-03-09T00:51:37.886Z,24.2200
2024-03-09T00:51:48.948Z,24.2200
2024-03-09T00:52:00.062Z,24.2200
2024-03-09T00:52:11.112Z,24.2200
2024-03-09T00:52:22.165Z,24.2300
2024-03-09T00:52:33.233Z,24.2300
2024-03-09T00:52:44.297Z,24.2400
2024-03-09T00:52:55.480Z,24.2400
2024-03-09T00:53:06.649Z,24.2400
2024-03-09T00:53:17.735Z,24.2300
2024-03-09T00:53:29.918Z,24.2300
2024-03-09T00:53:41.283Z,24.2400
2024-03-09T00:53:52.320Z,24.2300
2024-03-09T00:54:03.362Z,24.2300
2024-03-09T00:54:14.413Z,24.2400
2024-03-09T00:54:25.470Z,24.2300
2024-03-09T00:54:36.521Z,24.2300
2024-03-09T00:54:47.577Z,24.2400
2024-03-09T00:54:58.638Z,24.2400
2024-03-09T00:55:09.695Z,24.2400
2024-03-09T00:55:20.754Z,24.2300
2024-03-09T00:55:31.812Z,24.2300
2024-03-09T00:55:42.952Z,24.2300
2024-03-09T00:55:54.051Z,24.2300
2024-03-09T00:56:05.634Z,24.2300
2024-03-09T00:56:16.810Z,24.2300
2024-03-09T00:56:27.871Z,24.2300
2024-03-09T00:56:38.915Z,24.2300
2024-03-09T00:56:49.982Z,24.2300
2024-03-09T00:57:01.038Z,24.2400
2024-03-09T00:57:12.096Z,24.2500
2024-03-09T00:57:23.155Z,24.2500
2024-03-09T00:57:34.200Z,24.2500
2024-03-09T00:57:45.254Z,24.2400
2024-03-09T00:57:56.281Z,24.2500
2024-03-09T00:58:07.310Z,24.2500
2024-03-09T00:58:18.371Z,24.2500
2024-03-09T00:58:29.454Z,24.2500
2024-03-09T00:58:40.552Z,24.2600
2024-03-09T00:58:51.648Z,24.2600
2024-03-09T00:59:03.524Z,24.2600
2024-03-09T00:59:15.406Z,24.2600
2024-03-09T00:59:26.623Z,24.2500
2024-03-09T00:59:37.677Z,24.2600
2024-03-09T00:59:48.724Z,24.2600
2024-03-09T00:59:59.755Z,24.2700
2024-03-09T01:00:10.814Z,24.2700
2024-03-09T01:00:21.868Z,24.2700
2024-03-09T01:00:32.939Z,24.2700
2024-03-09T01:00:44.050Z,24.2700
2024-03-09T01:00:55.141Z,24.2600
2024-03-09T01:01:06.310Z,24.2600
2024-03-09T01:01:17.425Z,24.2600
2024-03-09T01:01:28.503Z,24.2600
2024-03-09T01:01:39.608Z,24.2600
2024-03-09T01:01:50.652Z,24.2500
2024-03-09T01:02:01.791Z,24.2600
2024-03-09T01:02:12.902Z,24.2600
2024-03-09T01:02:23.947Z,24.2600
2024-03-09T01:02:35.010Z,24.2600
2024-03-09T01:02:46.066Z,24.2600
2024-03-09T01:02:57.114Z,24.2600
2024-03-09T01:03:08.170Z,24.2600
2024-03-09T01:03:19.201Z,24.2500
2024-03-09T01:03:30.266Z,24.2400
2024-03-09T01:03:41.309Z,24.2400
2024-03-09T01:03:52.367Z,24.2400
2024-03-09T01:04:03.380Z,24.2400
2024-03-09T01:04:14.429Z,24.2300
2024-03-09T01:04:25.510Z,24.2300
2024-03-09T01:04:36.638Z,24.2300
2024-03-09T01:04:47.714Z,24.2200
2024-03-09T01:04:58.786Z,24.2200
2024-03-09T01:05:09.880Z,24.2200
2024-03-09T01:05:21.358Z,24.2200
2024-03-09T01:05:32.684Z,24.2300
2024-03-09T01:05:43.691Z,24.2200
2024-03-09T01:05:54.765Z,24.2300
2024-03-09T01:06:05.798Z,24.2300
2024-03-09T01:06:16.851Z,24.2300
2024-03-09T01:06:27.908Z,24.2200
2024-03-09T01:06:38.968Z,24.2200
2024-03-09T01:06:50.028Z,24.2200
2024-03-09T01:07:01.099Z,24.2200
2024-03-09T01:07:12.128Z,24.2200
2024-03-09T01:07:23.202Z,24.2300
2024-03-09T01:07:34.301Z,24.2300
2024-03-09T01:07:45.396Z,24.2300
2024-03-09T01:07:56.464Z,24.2400
2024-03-09T01:08:07.634Z,24.2400
2024-03-09T01:08:21.023Z,24.2400
2024-03-09T01:08:32.463Z,24.2300
2024-03-09T01:08:43.669Z,24.2100
2024-03-09T01:08:54.738Z,24.2200
2024-03-09T01:09:05.749Z,24.2300
2024-03-09T01:09:16.789Z,24.2300
2024-03-09T01:09:27.829Z,24.2400
2024-03-09T01:09:38.916Z,24.2400
2024-03-09T01:09:49.989Z,24.2400
2024-03-09T01:10:01.073Z,24.2500
2024-03-09T01:10:12.098Z,24.2400
2024-03-09T01:10:23.198Z,24.2400
2024-03-09T01:10:34.254Z,24.2300
2024-03-09T01:10:45.396Z,24.2300
2024-03-09T01:10:56.649Z,24.2300
2024-03-09T01:11:08.086Z,24.2400
2024-03-09T01:11:19.337Z,24.2400
2024-03-09T01:11:30.537Z,24.2400
2024-03-09T01:11:41.743Z,24.2400
2024-03-09T01:11:52.911Z,24.2400
2024-03-09T01:12:04.115Z,24.2400
2024-03-09T01:12:15.230Z,24.2500
2024-03-09T01:12:26.279Z,24.2500
2024-03-09T01:12:37.364Z,24.2500
2024-03-09T01:12:48.394Z,24.2500
2024-03-09T01:12:59.423Z,24.2400
2024-03-09T01:13:10.483Z,24.2400
2024-03-09T01:13:21.590Z,24.2300
2024-03-09T01:13:32.717Z,24.2300
2024-03-09T01:13:43.901Z,24.2300
2024-03-09T01:13:55.023Z,24.2300
2024-03-09T01:14:06.114Z,24.2300
2024-03-09T01:14:17.157Z,24.2300
2024-03-09T01:14:28.213Z,24.2300
2024-03-09T01:14:39.323Z,24.2300
2024-03-09T01:14:50.351Z,24.2400
2024-03-09T01:15:01.399Z,24.2400
2024-03-09T01:15:12.461Z,24.2400
2024-03-09T01:15:23.521Z,24.2400
2024-03-09T01:15:34.558Z,24.2300
2024-03-09T01:15:45.588Z,24.2300
2024-03-09T01:15:56.635Z,24.2300
2024-03-09T01:16:07.664Z,24.2300
2024-03-09T01:16:18.707Z,24.2200
2024-03-09T01:16:29.844Z,24.2200
2024-03-09T01:16:40.891Z,24.2100
2024-03-09T01:16:51.961Z,24.2100
2024-03-09T01:17:03.136Z,24.2100
2024-03-09T01:17:14.236Z,24.2100
2024-03-09T01:17:25.344Z,24.2100
2024-03-09T01:17:36.393Z,24.2100
2024-03-09T01:17:47.443Z,24.2000
2024-03-09T01:17:58.575Z,24.2000
2024-03-09T01:18:09.697Z,24.1900
2024-03-09T01:18:20.756Z,24.1900
2024-03-09T01:18:31.830Z,24.1900
2024-03-09T01:18:42.919Z,24.1900
2024-03-09T01:18:53.930Z,24.1900
2024-03-09T01:19:04.980Z,24.1900
2024-03-09T01:19:16.059Z,24.1900
2024-03-09T01:19:27.152Z,24.2000
2024-03-09T01:19:38.224Z,24.2000
2024-03-09T01:19:49.381Z,24.1900
2024-03-09T01:20:00.525Z,24.1900
2024-03-09T01:20:11.791Z,24.1900
2024-03-09T01:20:23.197Z,24.1900
2024-03-09T01:20:34.215Z,24.1900
2024-03-09T01:20:45.286Z,24.2000
2024-03-09T01:20:56.293Z,24.2000
2024-03-09T01:21:07.352Z,24.2100
2024-03-09T01:21:18.423Z,24.2100
2024-03-09T01:21:29.482Z,24.2200
2024-03-09T01:21:40.534Z,24.2200
2024-03-09T01:21:51.555Z,24.2200
2024-03-09T01:22:02.617Z,24.2200
2024-03-09T01:22:13.719Z,24.2200
2024-03-09T01:22:24.762Z,24.2200
2024-03-09T01:22:35.903Z,24.2200
2024-03-09T01:22:47.199Z,24.2200
2024-03-09T01:22:58.437Z,24.2200
2024-03-09T01:23:09.694Z,24.2200
2024-03-09T01:23:20.808Z,24.2200
2024-03-09T01:23:31.882Z,24.2200
2024-03-09T01:23:42.929Z,24.2200
2024-03-09T01:23:54.066Z,24.2200
2024-03-09T01:24:05.145Z,24.2200
2024-03-09T01:24:16.180Z,24.2200
2024-03-09T01:24:27.244Z,24.2200
2024-03-09T01:24:38.272Z,24.2200
2024-03-09T01:24:49.328Z,24.2200
2024-03-09T01:25:00.432Z,24.2200
2024-03-09T01:25:11.465Z,24.2200
2024-03-09T01:25:22.513Z,24.2300
2024-03-09T01:25:33.579Z,24.2300
2024-03-09T01:25:44.644Z,24.2300
2024-03-09T01:25:55.722Z,24.2300
2024-03-09T01:26:06.796Z,24.2300
2024-03-09T01:26:17.837Z,24.2300
2024-03-09T01:26:28.898Z,24.2300
2024-03-09T01:26:39.943Z,24.2200
2024-03-09T01:26:51.007Z,24.2200
2024-03-09T01:27:02.065Z,24.2200
2024-03-09T01:27:13.118Z,24.2200
2024-03-09T01:27:24.160Z,24.2200
2024-03-09T01:27:35.186Z,24.2100
2024-03-09T01:27:46.249Z,24.2100
2024-03-09T01:27:57.305Z,24.2100
2024-03-09T01:28:08.340Z,24.2200
2024-03-09T01:28:19.366Z,24.2300
2024-03-09T01:28:30.447Z,24.2300
2024-03-09T01:28:41.503Z,24.2300
2024-03-09T01:28:52.627Z,24.2300
2024-03-09T01:29:03.756Z,24.2400
2024-03-09T01:29:14.880Z,24.2400
2024-03-09T01:29:25.916Z,24.2300
2024-03-09T01:29:36.977Z,24.2300
2024-03-09T01:29:48.012Z,24.2300
2024-03-09T01:29:59.054Z,24.2200
2024-03-09T01:30:10.190Z,24.2300
2024-03-09T01:30:21.270Z,24.2300
2024-03-09T01:30:32.353Z,24.2300
2024-03-09T01:30:43.410Z,24.2300
2024-03-09T01:30:54.454Z,24.2300
2024-03-09T01:31:05.510Z,24.2300
2024-03-09T01:31:16.561Z,24.2300
2024-03-09T01:31:27.745Z,24.2200
2024-03-09T01:31:38.822Z,24.2100
2024-03-09T01:31:49.901Z,24.2100
2024-03-09T01:32:01.067Z,24.2100
2024-03-09T01:32:12.163Z,24.2100
2024-03-09T01:32:23.203Z,24.2100
2024-03-09T01:32:34.530Z,24.2000
2024-03-09T01:32:45.982Z,24.2000
2024-03-09T01:32:57.120Z,24.1900
2024-03-09T01:33:08.178Z,24.1900
2024-03-09T01:33:19.243Z,24.1900
2024-03-09T01:33:30.281Z,24.1900
2024-03-09T01:33:41.340Z,24.1900
2024-03-09T01:33:52.432Z,24.1900
2024-03-09T01:34:03.571Z,24.1900
2024-03-09T01:34:14.637Z,24.1900
2024-03-09T01:34:25.703Z,24.2000
2024-03-09T01:34:36.831Z,24.2100
2024-03-09T01:34:47.908Z,24.2100
2024-03-09T01:34:58.976Z,24.2100
2024-03-09T01:35:10.214Z,24.2200
2024-03-09T01:35:21.603Z,24.2200
2024-03-09T01:35:32.688Z,24.2300
2024-03-09T01:35:43.757Z,24.2300
2024-03-09T01:35:54.821Z,24.2400
2024-03-09T01:36:07.415Z,24.2400
2024-03-09T01:36:20.629Z,24.2400
2024-03-09T01:36:31.682Z,24.2300
2024-03-09T01:36:42.709Z,24.2400
2024-03-09T01:36:53.770Z,24.2500
2024-03-09T01:37:04.829Z,24.2600
2024-03-09T01:37:15.916Z,24.2600
2024-03-09T01:37:27.052Z,24.2500
2024-03-09T01:37:38.199Z,24.2500
2024-03-09T01:37:49.290Z,24.2500
2024-03-09T01:38:00.395Z,24.2500
2024-03-09T01:38:11.519Z,24.2500
2024-03-09T01:38:22.615Z,24.2600
2024-03-09T01:38:33.694Z,24.2500
2024-03-09T01:38:44.757Z,24.2400
2024-03-09T01:38:55.824Z,24.2400
2024-03-09T01:39:06.889Z,24.2400
2024-03-09T01:39:17.928Z,24.2400
2024-03-09T01:39:28.981Z,24.2500
2024-03-09T01:39:40.242Z,24.2500
2024-03-09T01:39:51.744Z,24.2500
2024-03-09T01:40:03.073Z,24.2500
2024-03-09T01:40:14.123Z,24.2400
2024-03-09T01:40:25.227Z,24.2400
2024-03-09T01:40:36.297Z,24.2400
2024-03-09T01:40:47.348Z,24.2500
2024-03-09T01:40:58.446Z,24.2500
2024-03-09T01:41:09.543Z,24.2500
2024-03-09T01:41:20.638Z,24.2600
2024-03-09T01:41:31.699Z,24.2600
2024-03-09T01:41:42.745Z,24.2600
2024-03-09T01:41:53.825Z,24.2600
2024-03-09T01:42:04.890Z,24.2600
2024-03-09T01:42:15.931Z,24.2600
2024-03-09T01:42:26.989Z,24.2600
2024-03-09T01:42:38.034Z,24.2600
2024-03-09T01:42:49.091Z,24.2600
2024-03-09T01:43:00.137Z,24.2500
2024-03-09T01:43:11.202Z,24.2500
2024-03-09T01:43:22.268Z,24.2500
2024-03-09T01:43:33.314Z,24.2500
2024-03-09T01:43:44.370Z,24.2400
2024-03-09T01:43:55.484Z,24.2400
2024-03-09T01:44:06.618Z,24.2400
2024-03-09T01:44:17.737Z,24.2400
2024-03-09T01:44:28.793Z,24.2300
2024-03-09T01:44:39.830Z,24.2300
2024-03-09T01:44:50.934Z,24.2300
2024-03-09T01:45:02.053Z,24.2300
2024-03-09T01:45:13.123Z,24.2200
2024-03-09T01:45:31.165Z,24.2100
2024-03-09T01:45:42.232Z,24.2100
2024-03-09T01:45:53.296Z,24.1800
2024-03-09T01:46:04.320Z,24.1800
2024-03-09T01:46:22.298Z,24.1900
2024-03-09T01:46:33.408Z,24.2000
2024-03-09T01:46:44.491Z,24.1700
2024-03-09T01:46:55.577Z,24.1800
2024-03-09T01:47:06.709Z,24.1900
2024-03-09T01:47:17.776Z,24.2000
2024-03-09T01:47:28.903Z,24.2100
2024-03-09T01:47:39.996Z,24.2100
2024-03-09T01:47:51.061Z,24.2100
2024-03-09T01:48:02.182Z,24.2100
2024-03-09T01:48:13.422Z,24.2200
2024-03-09T01:48:24.483Z,24.2200
2024-03-09T01:48:35.604Z,24.2200
2024-03-09T01:48:46.663Z,24.2200
2024-03-09T01:48:57.760Z,24.2200
2024-03-09T01:49:08.769Z,24.2300
2024-03-09T01:49:19.830Z,24.2300
2024-03-09T01:49:30.925Z,24.2300
2024-03-09T01:49:41.988Z,24.2300
2024-03-09T01:49:53.328Z,24.2200
2024-03-09T01:50:04.736Z,24.2300
2024-03-09T01:50:15.842Z,24.2300
2024-03-09T01:50:26.881Z,24.2200
2024-03-09T01:50:37.947Z,24.2200
2024-03-09T01:50:49.009Z,24.2200
2024-03-09T01:51:00.025Z,24.2200
2024-03-09T01:51:11.065Z,24.2200
2024-03-09T01:51:22.103Z,24.2200
2024-03-09T01:51:33.156Z,24.2100
2024-03-09T01:51:44.205Z,24.2100
2024-03-09T01:51:55.246Z,24.2100
2024-03-09T01:52:06.293Z,24.2100
2024-03-09T01:52:17.326Z,24.2100
2024-03-09T01:52:28.514Z,24.2100
2024-03-09T01:52:39.600Z,24.2100
2024-03-09T01:52:50.712Z,24.2200
2024-03-09T01:53:01.796Z,24.2200
2024-03-09T01:53:12.867Z,24.2100
2024-03-09T01:53:23.895Z,24.2100
2024-03-09T01:53:34.959Z,24.2100
2024-03-09T01:53:46.013Z,24.2100
2024-03-09T01:53:57.073Z,24.2100
2024-03-09T01:54:08.120Z,24.2200
2024-03-09T01:54:19.163Z,24.2200
2024-03-09T01:54:30.215Z,24.2100
2024-03-09T01:54:42.728Z,24.2100
2024-03-09T01:54:54.228Z,24.2100
2024-03-09T01:55:05.407Z,24.2000
2024-03-09T01:55:16.619Z,24.2100
2024-03-09T01:55:27.737Z,24.2100
2024-03-09T01:55:38.784Z,24.2100
2024-03-09T01:55:49.998Z,24.2100
2024-03-09T01:56:01.071Z,24.2100
2024-03-09T01:56:12.169Z,24.2000
2024-03-09T01:56:23.292Z,24.2000
2024-03-09T01:56:34.341Z,24.2000
2024-03-09T01:56:45.431Z,24.2000
2024-03-09T01:56:56.485Z,24.2000
2024-03-09T01:57:07.523Z,24.2000
2024-03-09T01:57:18.578Z,24.2000
2024-03-09T01:57:29.649Z,24.2000
2024-03-09T01:57:40.690Z,24.2000
2024-03-09T01:57:51.717Z,24.2000
2024-03-09T01:58:02.760Z,24.2000
2024-03-09T01:58:14.015Z,24.2100
2024-03-09T01:58:25.071Z,24.2100
2024-03-09T01:58:36.114Z,24.2100
2024-03-09T01:58:47.201Z,24.2100
2024-03-09T01:58:58.295Z,24.2100
2024-03-09T01:59:09.370Z,24.2200
2024-03-09T01:59:20.415Z,24.2200
2024-03-09T01:59:31.467Z,24.2100
2024-03-09T01:59:42.509Z,24.2200
2024-03-09T01:59:53.521Z,24.2200
2024-03-09T02:00:04.583Z,24.2300
2024-03-09T02:00:15.658Z,24.2300
2024-03-09T02:00:26.703Z,24.2400
2024-03-09T02:00:37.764Z,24.2300
2024-03-09T02:00:48.844Z,24.2300
2024-03-09T02:00:59.881Z,24.2300
2024-03-09T02:01:11.031Z,24.2300
2024-03-09T02:01:22.099Z,24.2300
2024-03-09T02:01:33.260Z,24.2300
2024-03-09T02:01:44.353Z,24.2200
2024-03-09T02:01:55.421Z,24.2300
2024-03-09T02:02:06.505Z,24.2300
2024-03-09T02:02:17.738Z,24.2300
2024-03-09T02:02:28.979Z,24.2300
2024-03-09T02:02:40.100Z,24.2300
2024-03-09T02:02:51.131Z,24.2300
2024-03-09T02:03:02.190Z,24.2300
2024-03-09T02:03:13.236Z,24.2300
2024-03-09T02:03:24.294Z,24.2200
2024-03-09T02:03:35.356Z,24.2200
2024-03-09T02:03:46.416Z,24.2200
2024-03-09T02:03:57.407Z,24.2200
2024-03-09T02:04:08.457Z,24.2200
2024-03-09T02:04:19.501Z,24.2200
2024-03-09T02:04:30.590Z,24.2200
2024-03-09T02:04:41.666Z,24.2300
2024-03-09T02:04:52.974Z,24.2300
2024-03-09T02:05:04.393Z,24.2300
2024-03-09T02:05:15.681Z,24.2200
2024-03-09T02:05:26.783Z,24.2200
2024-03-09T02:05:37.849Z,24.2200
2024-03-09T02:05:48.909Z,24.2200
2024-03-09T02:05:59.942Z,24.2200
2024-03-09T02:06:10.973Z,24.2200
2024-03-09T02:06:22.086Z,24.2300
2024-03-09T02:06:33.133Z,24.2300
2024-03-09T02:06:44.166Z,24.2200
2024-03-09T02:06:55.196Z,24.2200
2024-03-09T02:07:06.243Z,24.2300
2024-03-09T02:07:17.656Z,24.2300
2024-03-09T02:07:29.156Z,24.2300
2024-03-09T02:07:40.247Z,24.2200
2024-03-09T02:07:51.313Z,24.2200
2024-03-09T02:08:02.447Z,24.2200
2024-03-09T02:08:13.679Z,24.2100
2024-03-09T02:08:25.175Z,24.2100
2024-03-09T02:08:36.203Z,24.2100
2024-03-09T02:08:47.237Z,24.2200
2024-03-09T02:08:58.278Z,24.2200
2024-03-09T02:09:09.331Z,24.2300
2024-03-09T02:09:20.387Z,24.2400
2024-03-09T02:09:31.439Z,24.2400
2024-03-09T02:09:42.505Z,24.2400
2024-03-09T02:09:53.586Z,24.2400
2024-03-09T02:10:04.650Z,24.2300
2024-03-09T02:10:15.687Z,24.2400
2024-03-09T02:10:26.852Z,24.2400
2024-03-09T02:10:37.933Z,24.2400
2024-03-09T02:10:49.131Z,24.2400
2024-03-09T02:11:00.323Z,24.2400
2024-03-09T02:11:11.487Z,24.2300
2024-03-09T02:11:22.648Z,24.2300
2024-03-09T02:11:33.840Z,24.2200
2024-03-09T02:11:45.014Z,24.2300
2024-03-09T02:11:56.102Z,24.2300
2024-03-09T02:12:07.192Z,24.2300
2024-03-09T02:12:18.576Z,24.2300
2024-03-09T02:12:29.953Z,24.2300
2024-03-09T02:12:40.997Z,24.2200
2024-03-09T02:12:52.075Z,24.2200
2024-03-09T02:13:03.148Z,24.2200
2024-03-09T02:13:14.188Z,24.2200
2024-03-09T02:13:25.305Z,24.2200
2024-03-09T02:13:36.413Z,24.2200
2024-03-09T02:13:47.507Z,24.2200
2024-03-09T02:13:59.230Z,24.2200
2024-03-09T02:14:10.327Z,24.2200
2024-03-09T02:14:21.364Z,24.2200
2024-03-09T02:14:32.414Z,24.2300
2024-03-09T02:14:43.464Z,24.2300
2024-03-09T02:14:54.532Z,24.2300
2024-03-09T02:15:05.585Z,24.2300